Time;durP1;ratioP1;P1;durP2;ratioP2;P2;SDS_P1;SDS_P2;PMS_P1;PMS_P2;Temp;Humidity;BMP_temperature;BMP_pressure;BME280_temperature;BME280_humidity;BME280_pressure;Samples;Min_cycle;Max_cycle;Signal;HPM_P1;HPM_P2
2021/07/07 00:01:13;;;;;;;1.00;1.00;;;21.60;99.90;;;;;;4892409;29;20438;-78
2021/07/07 00:03:39;;;;;;;1.10;1.08;;;21.50;99.90;;;;;;4892989;29;20411;-78
2021/07/07 00:06:04;;;;;;;0.75;0.75;;;21.50;99.90;;;;;;4892698;29;20419;-78
2021/07/07 00:08:31;;;;;;;1.10;0.73;;;21.50;99.90;;;;;;4894242;29;20407;-78
2021/07/07 00:10:57;;;;;;;0.88;0.88;;;21.50;99.90;;;;;;4894366;29;20446;-78
2021/07/07 00:13:22;;;;;;;1.13;1.05;;;21.50;99.90;;;;;;4878116;29;20800;-77
2021/07/07 00:15:48;;;;;;;0.93;0.93;;;21.50;99.90;;;;;;4905606;29;20449;-78
2021/07/07 00:18:14;;;;;;;0.90;0.90;;;21.30;99.90;;;;;;4870367;29;20413;-77
2021/07/07 00:20:54;;;;;;;0.90;0.80;;;21.30;99.90;;;;;;4877557;29;20461;-76
2021/07/07 00:23:20;;;;;;;0.98;0.90;;;21.40;99.90;;;;;;4878926;29;20418;-78
2021/07/07 00:25:45;;;;;;;0.80;0.80;;;21.30;99.90;;;;;;4874417;29;20513;-77
2021/07/07 00:28:11;;;;;;;0.90;0.90;;;21.30;99.90;;;;;;4867487;29;20435;-76
2021/07/07 00:30:37;;;;;;;0.80;0.80;;;21.20;99.90;;;;;;4892086;29;20433;-77
2021/07/07 00:33:03;;;;;;;1.00;1.00;;;21.20;99.90;;;;;;4891122;29;20501;-77
2021/07/07 00:35:28;;;;;;;0.90;0.90;;;21.10;99.90;;;;;;4891627;29;20427;-77
2021/07/07 00:37:54;;;;;;;0.73;0.73;;;21.10;99.90;;;;;;4893024;29;20412;-77
2021/07/07 00:40:20;;;;;;;0.75;0.75;;;21.10;99.90;;;;;;4891242;29;20446;-77
2021/07/07 00:42:46;;;;;;;0.90;0.90;;;21.10;99.90;;;;;;4892297;29;20435;-78
2021/07/07 00:45:12;;;;;;;0.80;0.80;;;21.00;99.90;;;;;;4891164;29;20474;-79
2021/07/07 00:47:38;;;;;;;0.70;0.70;;;21.00;99.90;;;;;;4891287;29;20403;-77
2021/07/07 00:50:04;;;;;;;0.77;0.77;;;21.00;99.90;;;;;;4892615;29;20817;-77
2021/07/07 00:52:30;;;;;;;0.82;0.82;;;21.00;99.90;;;;;;4862441;29;20723;-76
2021/07/07 00:54:56;;;;;;;0.80;0.80;;;21.00;99.90;;;;;;4901282;29;20407;-78
2021/07/07 00:57:25;;;;;;;0.80;0.80;;;20.90;99.90;;;;;;4891359;29;20411;-78
2021/07/07 00:59:53;;;;;;;0.95;0.95;;;20.90;99.90;;;;;;4908517;29;20983;-77
2021/07/07 01:02:19;;;;;;;0.65;0.65;;;20.90;99.90;;;;;;4891269;29;20915;-77
2021/07/07 01:04:45;;;;;;;0.80;0.80;;;20.90;99.90;;;;;;4891608;29;20423;-78
2021/07/07 01:07:10;;;;;;;1.20;0.90;;;20.90;99.90;;;;;;4891411;29;20494;-76
2021/07/07 01:09:36;;;;;;;0.80;0.80;;;20.90;99.90;;;;;;4875491;29;20403;-78
2021/07/07 01:12:02;;;;;;;0.73;0.73;;;20.90;99.90;;;;;;4890370;29;20407;-78
2021/07/07 01:14:27;;;;;;;0.80;0.80;;;20.80;99.90;;;;;;4906939;29;20415;-77
2021/07/07 01:16:53;;;;;;;0.70;0.70;;;20.80;99.90;;;;;;4882688;29;20407;-77
2021/07/07 01:19:19;;;;;;;1.00;1.00;;;20.70;99.90;;;;;;4891277;29;20407;-77
2021/07/07 01:21:45;;;;;;;0.63;0.63;;;20.70;99.90;;;;;;4891399;29;20426;-77
2021/07/07 01:24:12;;;;;;;0.80;0.80;;;20.60;99.90;;;;;;4891958;29;20769;-78
2021/07/07 01:26:37;;;;;;;0.90;0.90;;;20.50;99.90;;;;;;4906263;29;20514;-77
2021/07/07 01:29:03;;;;;;;0.75;0.75;;;20.40;99.90;;;;;;4890983;29;20507;-78
2021/07/07 01:31:29;;;;;;;1.02;1.02;;;20.40;99.90;;;;;;4875889;29;20395;-77
2021/07/07 01:33:55;;;;;;;0.60;0.60;;;20.30;99.90;;;;;;4906551;29;20881;-77
2021/07/07 01:36:21;;;;;;;0.88;0.88;;;20.30;99.90;;;;;;4889774;29;20426;-77
2021/07/07 01:38:46;;;;;;;0.90;0.90;;;20.20;99.90;;;;;;4876159;29;20916;-78
2021/07/07 01:41:13;;;;;;;0.70;0.70;;;20.20;99.90;;;;;;4867864;29;20421;-78
2021/07/07 01:43:39;;;;;;;0.80;0.80;;;20.10;99.90;;;;;;4875873;29;20524;-78
2021/07/07 01:46:05;;;;;;;0.68;0.68;;;20.10;99.90;;;;;;4868758;29;20500;-77
2021/07/07 01:48:30;;;;;;;0.80;0.80;;;20.10;99.90;;;;;;4856738;29;20416;-77
2021/07/07 01:50:56;;;;;;;0.70;0.70;;;20.10;99.90;;;;;;4878515;29;20938;-77
2021/07/07 01:53:22;;;;;;;0.60;0.60;;;20.00;99.90;;;;;;4892016;29;20427;-78
2021/07/07 01:55:48;;;;;;;0.60;0.60;;;20.00;99.90;;;;;;4889844;29;20773;-77
2021/07/07 01:58:13;;;;;;;0.70;0.70;;;19.90;99.90;;;;;;4890325;29;20415;-77
2021/07/07 02:00:39;;;;;;;0.80;0.80;;;19.80;99.90;;;;;;4874667;29;20427;-78
2021/07/07 02:03:05;;;;;;;0.65;0.65;;;19.80;99.90;;;;;;4876170;29;20403;-77
2021/07/07 02:05:33;;;;;;;0.77;0.77;;;19.80;99.90;;;;;;4867959;29;20431;-77
2021/07/07 02:07:59;;;;;;;0.80;0.80;;;19.70;99.90;;;;;;4874558;29;20470;-77
2021/07/07 02:10:25;;;;;;;0.83;0.83;;;19.70;99.90;;;;;;4875429;29;20407;-77
2021/07/07 02:12:50;;;;;;;0.90;0.90;;;19.60;99.90;;;;;;4890120;29;21153;-78
2021/07/07 02:15:21;;;;;;;0.73;0.70;;;19.60;99.90;;;;;;4889440;29;20429;-77
2021/07/07 02:17:47;;;;;;;1.58;0.80;;;19.60;99.90;;;;;;4890189;29;20418;-76
2021/07/07 02:20:13;;;;;;;0.90;0.90;;;19.50;99.90;;;;;;4905292;29;20390;-77
2021/07/07 02:22:39;;;;;;;0.70;0.70;;;19.40;99.90;;;;;;4890328;29;20989;-75
2021/07/07 02:25:10;;;;;;;1.05;0.70;;;19.40;99.90;;;;;;4890546;29;20422;-75
2021/07/07 02:27:36;;;;;;;0.80;0.80;;;19.40;99.90;;;;;;4889537;29;20415;-75
2021/07/07 02:30:03;;;;;;;0.70;0.70;;;19.40;99.90;;;;;;4874713;29;20410;-75
2021/07/07 02:32:28;;;;;;;0.90;0.90;;;19.30;99.90;;;;;;4874272;29;20415;-74
2021/07/07 02:34:54;;;;;;;1.30;0.77;;;19.30;99.90;;;;;;4873740;29;20463;-75
2021/07/07 02:37:20;;;;;;;0.77;0.77;;;19.30;99.90;;;;;;4877257;29;20407;-75
2021/07/07 02:39:45;;;;;;;0.73;0.73;;;19.20;99.90;;;;;;4915496;29;20900;-75
2021/07/07 02:42:11;;;;;;;0.90;0.90;;;19.20;99.90;;;;;;4893686;29;20403;-75
2021/07/07 02:44:37;;;;;;;0.60;0.60;;;19.20;99.90;;;;;;4910918;29;20792;-75
2021/07/07 02:47:03;;;;;;;0.80;0.80;;;19.20;99.90;;;;;;4891850;29;20399;-77
2021/07/07 02:49:28;;;;;;;0.75;0.75;;;19.20;99.90;;;;;;4873379;29;20415;-76
2021/07/07 02:51:54;;;;;;;0.80;0.80;;;19.20;99.90;;;;;;4887734;29;20410;-76
2021/07/07 02:54:20;;;;;;;0.75;0.75;;;19.20;99.90;;;;;;4909369;29;20902;-75
2021/07/07 02:56:45;;;;;;;0.70;0.70;;;19.20;99.90;;;;;;4924875;29;20397;-76
2021/07/07 02:59:11;;;;;;;1.50;0.70;;;19.20;99.90;;;;;;4909294;29;20533;-76
2021/07/07 03:01:37;;;;;;;0.60;0.60;;;19.20;99.90;;;;;;4895567;29;20415;-76
2021/07/07 03:04:03;;;;;;;0.80;0.80;;;19.10;99.90;;;;;;4874528;29;20407;-76
2021/07/07 03:06:29;;;;;;;0.80;0.80;;;19.00;99.90;;;;;;4875398;29;20569;-77
2021/07/07 03:08:54;;;;;;;0.75;0.75;;;19.00;99.90;;;;;;4886001;29;20939;-76
2021/07/07 03:11:20;;;;;;;0.80;0.80;;;19.00;99.90;;;;;;4866853;29;20399;-76
2021/07/07 03:13:46;;;;;;;0.60;0.60;;;19.00;99.90;;;;;;4889963;29;20467;-75
2021/07/07 03:16:11;;;;;;;0.68;0.68;;;19.00;99.90;;;;;;4904267;29;20407;-75
2021/07/07 03:18:37;;;;;;;0.80;0.70;;;19.10;99.90;;;;;;4890476;29;20450;-76
2021/07/07 03:21:03;;;;;;;0.90;0.90;;;19.10;99.90;;;;;;4880676;29;20411;-75
2021/07/07 03:23:28;;;;;;;0.70;0.70;;;19.10;99.90;;;;;;4889386;29;20546;-76
2021/07/07 03:25:54;;;;;;;0.70;0.70;;;19.10;99.90;;;;;;4886987;29;20446;-76
2021/07/07 03:28:21;;;;;;;0.70;0.70;;;19.10;99.90;;;;;;4904978;29;20501;-75
2021/07/07 03:30:47;;;;;;;0.73;0.73;;;19.10;99.90;;;;;;4875770;29;20403;-76
2021/07/07 03:33:13;;;;;;;1.40;0.80;;;19.20;99.90;;;;;;4874856;29;20414;-75
2021/07/07 03:35:39;;;;;;;1.10;1.10;;;19.10;99.90;;;;;;4876159;29;20417;-77
2021/07/07 03:38:05;;;;;;;0.82;0.82;;;19.10;99.90;;;;;;4877849;29;20415;-75
2021/07/07 03:40:31;;;;;;;0.70;0.70;;;19.00;99.90;;;;;;4878011;29;20430;-77
2021/07/07 03:42:57;;;;;;;0.70;0.70;;;19.00;99.90;;;;;;4908616;29;20418;-75
2021/07/07 03:45:23;;;;;;;0.80;0.80;;;19.00;99.90;;;;;;4890739;29;20428;-76
2021/07/07 03:47:49;;;;;;;0.80;0.80;;;19.00;99.90;;;;;;4877027;29;20403;-75
2021/07/07 03:50:15;;;;;;;0.80;0.80;;;19.00;99.90;;;;;;4877824;29;20411;-76
2021/07/07 03:52:40;;;;;;;0.90;0.90;;;19.00;99.90;;;;;;4891592;29;20570;-75
2021/07/07 03:55:07;;;;;;;0.98;0.60;;;18.90;99.90;;;;;;4893674;29;20498;-75
2021/07/07 03:57:33;;;;;;;0.70;0.70;;;18.90;99.90;;;;;;4877169;29;20410;-77
2021/07/07 03:59:59;;;;;;;0.80;0.80;;;18.90;99.90;;;;;;4876001;29;20423;-75
2021/07/07 04:02:25;;;;;;;0.90;0.80;;;18.90;99.90;;;;;;4876752;29;20407;-76
2021/07/07 04:04:51;;;;;;;0.80;0.80;;;18.90;99.90;;;;;;4893060;29;20895;-76
2021/07/07 04:07:16;;;;;;;0.70;0.70;;;18.90;99.90;;;;;;4887857;29;20427;-76
2021/07/07 04:09:42;;;;;;;0.80;0.80;;;18.90;99.90;;;;;;4897985;29;20407;-76
2021/07/07 04:12:08;;;;;;;0.50;0.50;;;18.80;99.90;;;;;;4878331;29;20398;-77
2021/07/07 04:14:33;;;;;;;1.10;0.80;;;18.90;99.90;;;;;;4891478;29;20407;-76
2021/07/07 04:17:05;;;;;;;0.93;0.93;;;18.90;99.90;;;;;;4895001;29;20409;-76
2021/07/07 04:19:36;;;;;;;1.90;0.82;;;18.90;99.90;;;;;;4846578;29;20449;-77
2021/07/07 04:22:02;;;;;;;1.42;0.90;;;18.80;99.90;;;;;;4904198;29;20428;-74
2021/07/07 04:24:27;;;;;;;0.60;0.60;;;18.80;99.90;;;;;;4895283;29;20413;-74
2021/07/07 04:26:53;;;;;;;0.50;0.50;;;18.70;99.90;;;;;;4896154;29;20467;-73
2021/07/07 04:29:19;;;;;;;0.70;0.70;;;18.80;99.90;;;;;;4891724;29;20532;-74
2021/07/07 04:31:45;;;;;;;0.70;0.70;;;18.70;99.90;;;;;;4912728;29;20391;-74
2021/07/07 04:34:10;;;;;;;0.85;0.85;;;18.70;99.90;;;;;;4892171;29;20781;-74
2021/07/07 04:36:36;;;;;;;1.30;0.90;;;18.60;99.90;;;;;;4875265;29;20399;-74
2021/07/07 04:39:04;;;;;;;1.98;1.85;;;18.30;99.90;;;;;;4873540;29;20410;-76
2021/07/07 04:41:30;;;;;;;0.80;0.80;;;18.20;99.90;;;;;;4892126;29;20470;-76
2021/07/07 04:43:56;;;;;;;0.63;0.63;;;18.10;99.90;;;;;;4907719;29;21031;-76
2021/07/07 04:46:21;;;;;;;0.70;0.70;;;18.00;99.90;;;;;;4891809;29;20935;-77
2021/07/07 04:48:47;;;;;;;0.70;0.70;;;17.90;99.90;;;;;;4891997;29;20429;-77
2021/07/07 04:51:13;;;;;;;0.70;0.70;;;17.90;99.90;;;;;;4875800;29;20426;-77
2021/07/07 04:53:39;;;;;;;0.90;0.90;;;17.90;99.90;;;;;;4875611;29;20407;-77
2021/07/07 04:56:05;;;;;;;0.73;0.73;;;17.80;99.90;;;;;;4875147;29;20431;-76
2021/07/07 04:58:31;;;;;;;0.60;0.60;;;17.80;99.90;;;;;;4905905;29;20414;-76
2021/07/07 05:00:57;;;;;;;0.52;0.52;;;17.90;99.90;;;;;;4890156;29;20762;-76
2021/07/07 05:03:22;;;;;;;0.73;0.73;;;18.00;99.90;;;;;;4875451;29;20919;-77
2021/07/07 05:05:48;;;;;;;0.98;0.90;;;18.00;99.90;;;;;;4881448;29;20460;-76
2021/07/07 05:08:14;;;;;;;0.60;0.60;;;18.00;99.90;;;;;;4864460;29;20495;-78
2021/07/07 05:10:39;;;;;;;0.63;0.63;;;17.90;99.90;;;;;;4897258;29;20420;-78
2021/07/07 05:13:05;;;;;;;0.70;0.70;;;18.00;99.90;;;;;;4890290;29;20438;-78
2021/07/07 05:15:32;;;;;;;1.10;1.00;;;18.00;99.90;;;;;;4880113;29;20417;-77
2021/07/07 05:18:02;;;;;;;0.70;0.70;;;18.00;99.90;;;;;;4879124;29;20965;-82
2021/07/07 05:20:31;;;;;;;1.20;0.90;;;18.00;99.90;;;;;;4877487;29;20411;-79
2021/07/07 05:22:57;;;;;;;0.75;0.75;;;18.00;99.90;;;;;;4892641;29;20397;-90
2021/07/07 05:25:23;;;;;;;0.60;0.60;;;18.00;99.90;;;;;;4899595;29;21164;-89
2021/07/07 05:27:48;;;;;;;0.60;0.60;;;18.00;99.90;;;;;;4900541;29;20394;-90
2021/07/07 05:30:15;;;;;;;0.90;0.90;;;17.90;99.90;;;;;;4899281;29;20435;-90
2021/07/07 05:32:41;;;;;;;0.80;0.80;;;17.90;99.90;;;;;;4901339;29;20415;-89
2021/07/07 05:35:08;;;;;;;0.73;0.70;;;17.80;99.90;;;;;;4901438;29;20387;-87
2021/07/07 05:37:34;;;;;;;0.60;0.60;;;17.80;99.90;;;;;;4900239;29;20427;-90
2021/07/07 05:40:00;;;;;;;0.80;0.80;;;17.60;99.90;;;;;;4900275;29;20478;-91
2021/07/07 05:42:25;;;;;;;0.57;0.57;;;17.40;99.90;;;;;;4899602;29;20443;-90
2021/07/07 05:44:54;;;;;;;0.70;0.70;;;17.40;99.90;;;;;;4898484;29;20490;-89
2021/07/07 05:47:23;;;;;;;0.80;0.80;;;17.40;99.90;;;;;;4897791;29;20983;-87
2021/07/07 05:49:49;;;;;;;0.90;0.90;;;17.50;99.90;;;;;;4896102;29;20392;-87
2021/07/07 05:52:14;;;;;;;0.85;0.85;;;17.50;99.90;;;;;;4899478;29;20413;-90
2021/07/07 05:54:40;;;;;;;0.70;0.70;;;17.50;99.90;;;;;;4899690;29;20402;-90
2021/07/07 05:57:06;;;;;;;0.73;0.73;;;17.40;99.90;;;;;;4899352;29;20394;-91
2021/07/07 05:59:32;;;;;;;0.80;0.80;;;17.20;99.90;;;;;;4899638;29;20414;-89
2021/07/07 06:01:57;;;;;;;0.90;0.90;;;17.20;99.90;;;;;;4899815;29;20411;-88
2021/07/07 06:04:23;;;;;;;0.82;0.82;;;17.20;99.90;;;;;;4900630;29;20469;-90
2021/07/07 06:06:49;;;;;;;1.38;0.88;;;17.30;99.90;;;;;;4899923;29;20519;-90
2021/07/07 06:09:14;;;;;;;0.70;0.70;;;17.20;99.90;;;;;;4900665;29;20450;-88
2021/07/07 06:11:40;;;;;;;0.80;0.80;;;17.20;99.90;;;;;;4899844;29;20427;-90
2021/07/07 06:14:06;;;;;;;1.13;1.03;;;17.20;99.90;;;;;;4900788;29;20418;-89
2021/07/07 06:16:32;;;;;;;1.48;0.90;;;17.10;99.90;;;;;;4899675;29;20403;-90
2021/07/07 06:18:57;;;;;;;1.10;1.00;;;17.10;99.90;;;;;;4900367;29;20399;-90
2021/07/07 06:21:23;;;;;;;0.52;0.52;;;17.10;99.90;;;;;;4900887;29;20494;-89
2021/07/07 06:23:49;;;;;;;0.80;0.80;;;17.10;99.90;;;;;;4899963;29;20449;-90
2021/07/07 06:26:14;;;;;;;0.90;0.90;;;17.10;99.90;;;;;;4899802;29;20434;-90
2021/07/07 06:28:40;;;;;;;0.90;0.90;;;17.10;99.90;;;;;;4900409;29;20506;-91
2021/07/07 06:31:06;;;;;;;0.87;0.87;;;17.00;99.90;;;;;;4898791;29;20395;-92
2021/07/07 06:33:32;;;;;;;1.00;1.00;;;17.10;99.90;;;;;;4899731;29;20399;-91
2021/07/07 06:35:58;;;;;;;0.80;0.80;;;17.20;99.90;;;;;;4900081;29;20408;-92
2021/07/07 06:38:24;;;;;;;0.80;0.80;;;17.20;99.90;;;;;;4897949;29;20415;-92
2021/07/07 06:40:50;;;;;;;0.80;0.80;;;17.30;99.90;;;;;;4894349;29;20402;-92
2021/07/07 06:43:17;;;;;;;0.90;0.90;;;17.30;99.90;;;;;;4884820;29;20395;-91
2021/07/07 06:45:43;;;;;;;0.90;0.90;;;17.30;99.90;;;;;;4899213;29;20430;-91
2021/07/07 06:48:10;;;;;;;0.90;0.80;;;17.40;99.90;;;;;;4900012;29;20406;-90
2021/07/07 06:50:36;;;;;;;0.82;0.82;;;17.40;99.90;;;;;;4899830;29;20451;-89
2021/07/07 06:53:02;;;;;;;0.90;0.90;;;17.40;99.90;;;;;;4899764;29;20414;-90
2021/07/07 06:55:28;;;;;;;0.90;0.90;;;17.40;99.90;;;;;;4900294;29;20453;-90
2021/07/07 06:57:54;;;;;;;0.73;0.73;;;17.40;99.90;;;;;;4899886;29;20407;-90
2021/07/07 07:00:20;;;;;;;0.70;0.70;;;17.50;99.90;;;;;;4899045;29;20403;-91
2021/07/07 07:02:46;;;;;;;1.13;0.70;;;17.50;99.90;;;;;;4900427;29;20403;-91
2021/07/07 07:05:13;;;;;;;0.90;0.90;;;17.50;99.90;;;;;;4899535;29;20426;-92
2021/07/07 07:07:39;;;;;;;0.70;0.70;;;17.40;99.90;;;;;;4900050;29;20414;-91
2021/07/07 07:10:05;;;;;;;0.70;0.70;;;17.40;99.90;;;;;;4902351;29;20413;-90
2021/07/07 07:12:31;;;;;;;0.73;0.73;;;17.40;99.90;;;;;;4903596;29;20410;-91
2021/07/07 07:14:57;;;;;;;0.80;0.80;;;17.40;99.90;;;;;;4904161;29;20679;-91
2021/07/07 07:17:26;;;;;;;0.75;0.75;;;17.50;99.90;;;;;;4902516;29;20462;-91
2021/07/07 07:19:52;;;;;;;1.00;1.00;;;17.50;99.90;;;;;;4902787;29;20471;-91
2021/07/07 07:22:18;;;;;;;1.00;0.90;;;17.50;99.90;;;;;;4903927;29;20411;-90
2021/07/07 07:24:44;;;;;;;0.77;0.77;;;17.30;99.90;;;;;;4902641;29;20417;-90
2021/07/07 07:27:10;;;;;;;0.90;0.90;;;17.30;99.90;;;;;;4903272;29;20439;-91
2021/07/07 07:29:37;;;;;;;0.90;0.90;;;17.30;99.90;;;;;;4903655;29;20394;-91
2021/07/07 07:32:04;;;;;;;0.82;0.82;;;17.40;99.90;;;;;;4902488;29;20395;-91
2021/07/07 07:34:29;;;;;;;0.93;0.93;;;17.50;99.90;;;;;;4887746;29;20433;-90
2021/07/07 07:37:01;;;;;;;1.00;0.90;;;17.60;99.90;;;;;;4904010;29;20371;-89
2021/07/07 07:39:28;;;;;;;1.00;1.00;;;17.60;99.90;;;;;;4903961;29;20438;-90
2021/07/07 07:41:53;;;;;;;0.80;0.80;;;17.50;99.90;;;;;;4902860;29;20403;-89
2021/07/07 07:44:19;;;;;;;0.95;0.95;;;17.60;99.90;;;;;;4903773;29;20541;-88
2021/07/07 07:46:45;;;;;;;0.90;0.90;;;17.70;99.90;;;;;;4902175;29;20501;-90
2021/07/07 07:49:13;;;;;;;1.00;1.00;;;17.80;99.90;;;;;;4902303;29;20426;-90
2021/07/07 07:51:39;;;;;;;1.23;1.17;;;17.80;99.90;;;;;;4904176;29;20480;-90
2021/07/07 07:54:04;;;;;;;1.65;0.90;;;17.90;99.90;;;;;;4902828;29;20395;-89
2021/07/07 07:56:30;;;;;;;0.90;0.90;;;17.90;99.90;;;;;;4901809;29;20419;-89
2021/07/07 07:58:56;;;;;;;0.80;0.80;;;18.00;99.90;;;;;;4902996;29;20459;-88
2021/07/07 08:01:24;;;;;;;0.90;0.90;;;18.00;99.90;;;;;;4900795;29;20419;-91
2021/07/07 08:03:50;;;;;;;0.90;0.90;;;18.00;99.90;;;;;;4903072;29;20395;-90
2021/07/07 08:06:16;;;;;;;1.00;1.00;;;18.00;99.90;;;;;;4903022;29;21987;-90
2021/07/07 08:08:42;;;;;;;0.88;0.88;;;18.10;99.90;;;;;;4900876;29;20402;-90
2021/07/07 08:11:07;;;;;;;0.95;0.95;;;18.10;99.90;;;;;;4903557;29;20464;-91
2021/07/07 08:13:33;;;;;;;1.02;1.02;;;18.00;99.90;;;;;;4902220;29;20402;-90
2021/07/07 08:15:59;;;;;;;1.20;1.10;;;18.00;99.90;;;;;;4895782;29;20425;-91
2021/07/07 08:18:25;;;;;;;1.13;1.13;;;18.00;99.90;;;;;;4902833;29;20403;-91
2021/07/07 08:20:51;;;;;;;1.10;1.10;;;18.00;99.90;;;;;;4901524;29;20474;-90
2021/07/07 08:23:16;;;;;;;1.13;1.10;;;18.00;99.90;;;;;;4902359;29;20709;-91
2021/07/07 08:25:42;;;;;;;1.10;1.10;;;18.10;99.90;;;;;;4902707;29;20470;-90
2021/07/07 08:28:08;;;;;;;1.10;1.00;;;18.10;99.90;;;;;;4903027;29;20410;-92
2021/07/07 08:30:34;;;;;;;1.00;1.00;;;18.10;99.90;;;;;;4902516;29;20375;-91
2021/07/07 08:32:59;;;;;;;1.10;1.10;;;18.10;99.90;;;;;;4902557;29;20423;-90
2021/07/07 08:35:25;;;;;;;1.17;1.17;;;18.10;99.90;;;;;;4902533;29;20427;-91
2021/07/07 08:37:51;;;;;;;1.00;1.00;;;18.20;99.90;;;;;;4902090;29;20410;-89
2021/07/07 08:40:17;;;;;;;1.10;1.10;;;18.30;99.90;;;;;;4901227;29;20402;-90
2021/07/07 08:42:43;;;;;;;1.30;1.20;;;18.20;99.90;;;;;;4886872;29;20399;-90
2021/07/07 08:45:13;;;;;;;1.37;1.30;;;18.30;99.90;;;;;;4901503;29;20415;-91
2021/07/07 08:47:41;;;;;;;1.30;1.20;;;18.30;99.90;;;;;;4902287;29;20415;-90
2021/07/07 08:50:08;;;;;;;1.52;1.42;;;18.40;99.90;;;;;;4901424;29;20414;-89
2021/07/07 08:52:36;;;;;;;1.17;1.10;;;18.40;99.90;;;;;;4902815;29;20386;-92
2021/07/07 08:55:01;;;;;;;1.30;1.20;;;18.40;99.90;;;;;;4901409;29;20414;-90
2021/07/07 08:57:27;;;;;;;1.50;1.40;;;18.50;99.90;;;;;;4902096;29;20398;-92
2021/07/07 08:59:54;;;;;;;1.20;1.20;;;18.50;99.90;;;;;;4902011;29;20426;-91
2021/07/07 09:02:20;;;;;;;1.13;1.13;;;18.50;99.90;;;;;;4901285;29;20406;-91
2021/07/07 09:04:46;;;;;;;1.00;1.00;;;18.60;99.90;;;;;;4901513;29;20426;-91
2021/07/07 09:07:21;;;;;;;1.20;1.20;;;18.60;99.90;;;;;;4902080;29;20414;-91
2021/07/07 09:09:51;;;;;;;1.20;1.20;;;18.60;99.90;;;;;;4886085;29;20402;-91
2021/07/07 09:12:26;;;;;;;1.20;1.20;;;18.60;99.90;;;;;;4901674;29;20455;-88
2021/07/07 09:15:19;;;;;;;1.40;1.30;;;18.70;99.90;;;;;;4900654;29;20443;-91
2021/07/07 09:17:50;;;;;;;2.40;1.30;;;18.80;99.90;;;;;;4903958;29;20473;-89
2021/07/07 09:20:23;;;;;;;1.45;1.35;;;18.80;99.90;;;;;;4901881;29;20403;-90
2021/07/07 09:22:50;;;;;;;1.10;1.10;;;18.70;99.90;;;;;;4901574;29;20395;-90
2021/07/07 09:25:26;;;;;;;1.50;1.40;;;18.70;99.90;;;;;;4900166;29;20577;-90
2021/07/07 09:27:51;;;;;;;1.27;1.27;;;18.70;99.90;;;;;;4901850;29;20399;-91
2021/07/07 09:30:17;;;;;;;1.20;1.10;;;18.80;99.90;;;;;;4901617;29;20454;-91
2021/07/07 09:32:47;;;;;;;1.60;1.50;;;18.80;99.90;;;;;;4900400;29;20398;-91
2021/07/07 09:35:13;;;;;;;1.30;1.10;;;18.90;99.90;;;;;;4900653;29;20407;-88
2021/07/07 09:37:45;;;;;;;1.05;1.05;;;19.00;99.90;;;;;;4901220;29;20421;-87
2021/07/07 09:40:12;;;;;;;0.95;0.95;;;19.10;99.90;;;;;;4895240;29;20455;-88
2021/07/07 09:42:39;;;;;;;1.40;1.30;;;19.00;99.90;;;;;;4900848;29;20398;-90
2021/07/07 09:45:10;;;;;;;1.35;1.27;;;19.00;99.90;;;;;;4901284;29;20425;-90
2021/07/07 09:47:36;;;;;;;1.40;1.30;;;19.00;99.90;;;;;;4885558;29;20383;-92
2021/07/07 09:50:02;;;;;;;1.30;1.27;;;18.90;99.90;;;;;;4900223;29;20480;-89
2021/07/07 09:52:29;;;;;;;2.30;1.20;;;18.90;99.90;;;;;;4901665;29;20403;-91
2021/07/07 09:54:55;;;;;;;1.10;1.08;;;18.80;99.90;;;;;;4900628;29;20403;-90
2021/07/07 09:57:21;;;;;;;1.00;1.00;;;18.90;99.90;;;;;;4900868;29;20399;-91
2021/07/07 09:59:47;;;;;;;1.90;1.20;;;19.00;99.90;;;;;;4900044;29;20450;-91
2021/07/07 10:02:13;;;;;;;1.45;1.35;;;19.00;99.90;;;;;;4898727;29;20461;-90
2021/07/07 10:04:42;;;;;;;1.10;1.10;;;18.90;99.90;;;;;;4901186;29;20419;-90
2021/07/07 10:07:08;;;;;;;1.20;1.10;;;18.90;99.90;;;;;;4901531;29;20427;-89
2021/07/07 10:09:38;;;;;;;2.30;1.13;;;18.90;99.90;;;;;;4916238;29;20419;-89
2021/07/07 10:12:04;;;;;;;1.30;1.30;;;18.90;99.90;;;;;;4900734;29;20391;-90
2021/07/07 10:14:30;;;;;;;1.20;1.20;;;18.90;99.90;;;;;;4902132;29;20403;-90
2021/07/07 10:16:55;;;;;;;1.10;1.10;;;18.80;99.90;;;;;;4899752;29;20780;-90
2021/07/07 10:19:21;;;;;;;1.10;1.10;;;18.90;99.90;;;;;;4900403;29;20458;-90
2021/07/07 10:21:47;;;;;;;1.60;1.50;;;19.00;99.90;;;;;;4900943;29;20419;-91
2021/07/07 10:24:15;;;;;;;1.20;1.20;;;19.00;99.90;;;;;;4900115;29;20415;-88
2021/07/07 10:26:42;;;;;;;1.20;1.20;;;19.10;99.90;;;;;;4915533;29;20475;-87
2021/07/07 10:29:07;;;;;;;1.17;1.17;;;19.20;99.90;;;;;;4900346;29;20401;-88
2021/07/07 10:31:47;;;;;;;1.33;1.23;;;19.10;99.90;;;;;;4899407;29;20399;-86
2021/07/07 10:34:14;;;;;;;1.20;1.20;;;19.30;99.90;;;;;;4900574;29;20435;-87
2021/07/07 10:36:40;;;;;;;1.48;1.38;;;19.40;99.90;;;;;;4900113;29;20399;-88
2021/07/07 10:39:07;;;;;;;1.25;1.25;;;19.50;99.90;;;;;;4899337;29;20402;-86
2021/07/07 10:41:42;;;;;;;1.50;1.40;;;19.50;99.90;;;;;;4915532;29;20382;-87
2021/07/07 10:44:08;;;;;;;2.80;1.40;;;19.60;99.90;;;;;;4916259;29;20407;-85
2021/07/07 10:46:49;;;;;;;1.15;1.15;;;19.70;99.90;;;;;;4902476;29;20441;-87
2021/07/07 10:49:25;;;;;;;1.47;1.37;;;19.70;99.90;;;;;;4902497;29;20491;-87
2021/07/07 10:51:52;;;;;;;1.05;1.05;;;19.80;99.90;;;;;;4903516;29;20454;-86
2021/07/07 10:54:30;;;;;;;1.48;1.38;;;19.80;99.90;;;;;;4901736;29;20415;-86
2021/07/07 10:56:57;;;;;;;1.48;1.38;;;19.90;99.90;;;;;;4903087;29;20413;-82
2021/07/07 10:59:34;;;;;;;1.20;1.20;;;19.90;99.90;;;;;;4903263;29;20430;-85
2021/07/07 11:02:06;;;;;;;1.73;1.63;;;20.00;99.90;;;;;;4901801;29;20426;-86
2021/07/07 11:04:39;;;;;;;1.50;1.40;;;20.00;99.90;;;;;;4903177;29;20410;-84
2021/07/07 11:07:27;;;;;;;1.30;1.30;;;20.10;99.90;;;;;;4916783;29;20422;-83
2021/07/07 11:10:00;;;;;;;1.45;1.35;;;20.20;99.90;;;;;;4902423;29;20386;-85
2021/07/07 11:12:35;;;;;;;1.30;1.30;;;20.30;99.90;;;;;;4885845;29;20419;-85
2021/07/07 11:15:07;;;;;;;2.30;1.25;;;20.40;99.90;;;;;;4915001;29;20399;-84
2021/07/07 11:17:40;;;;;;;1.80;1.48;;;20.30;99.90;;;;;;4896205;29;20409;-81
2021/07/07 11:20:09;;;;;;;1.40;1.30;;;20.40;99.90;;;;;;4864733;29;20401;-86
2021/07/07 11:22:35;;;;;;;1.42;1.33;;;20.60;99.90;;;;;;4865579;29;20683;-79
2021/07/07 11:25:04;;;;;;;1.30;1.20;;;20.70;99.90;;;;;;4884581;29;20495;-83
2021/07/07 11:27:33;;;;;;;3.00;1.38;;;20.90;99.90;;;;;;4912997;29;20403;-83
2021/07/07 11:30:07;;;;;;;1.50;1.40;;;21.20;99.90;;;;;;4896032;29;20395;-83
2021/07/07 11:32:42;;;;;;;1.50;1.40;;;21.40;99.90;;;;;;4910932;29;20430;-83
2021/07/07 11:35:25;;;;;;;1.30;1.30;;;21.50;99.90;;;;;;4894951;29;20644;-80
2021/07/07 11:37:56;;;;;;;3.00;1.38;;;21.70;99.90;;;;;;4925226;29;20422;-88
2021/07/07 11:40:27;;;;;;;1.10;1.10;;;21.90;99.90;;;;;;4891714;29;20430;-82
2021/07/07 11:43:04;;;;;;;1.10;1.10;;;21.80;99.90;;;;;;4899420;29;20465;-86
2021/07/07 11:45:36;;;;;;;1.80;1.10;;;21.80;99.90;;;;;;4904215;29;20421;-83
2021/07/07 11:48:23;;;;;;;1.08;1.08;;;21.70;99.90;;;;;;4924411;29;20439;-81
2021/07/07 11:50:53;;;;;;;2.05;1.20;;;22.10;99.90;;;;;;4907035;29;20441;-81
2021/07/07 11:53:19;;;;;;;1.23;1.23;;;22.30;99.90;;;;;;4903680;29;20418;-82
2021/07/07 11:55:51;;;;;;;0.90;0.90;;;22.30;99.90;;;;;;4901396;29;20395;-80
2021/07/07 11:58:32;;;;;;;1.03;1.03;;;22.20;99.90;;;;;;4913559;29;20485;-81
2021/07/07 12:01:07;;;;;;;0.98;0.98;;;21.70;99.90;;;;;;4880168;29;20406;-80
2021/07/07 12:03:32;;;;;;;1.15;1.05;;;21.80;99.90;;;;;;4877780;29;20477;-82
2021/07/07 12:06:12;;;;;;;1.10;1.10;;;21.90;99.90;;;;;;4863022;29;20957;-81
2021/07/07 12:08:39;;;;;;;1.10;1.00;;;21.80;99.90;;;;;;4895523;29;20411;-80
2021/07/07 12:11:09;;;;;;;0.80;0.80;;;22.00;99.90;;;;;;4897061;29;20411;-82
2021/07/07 12:13:36;;;;;;;1.00;1.00;;;22.10;99.90;;;;;;4897602;29;20407;-80
2021/07/07 12:16:21;;;;;;;1.30;1.15;;;22.20;99.90;;;;;;4896012;29;20414;-81
2021/07/07 12:18:54;;;;;;;1.38;1.30;;;22.10;99.90;;;;;;4911316;29;20486;-81
2021/07/07 12:21:22;;;;;;;1.25;1.17;;;21.90;99.90;;;;;;4896209;29;20927;-80
2021/07/07 12:23:55;;;;;;;1.05;0.98;;;22.10;99.90;;;;;;4898538;29;20406;-81
2021/07/07 12:26:21;;;;;;;1.40;1.00;;;22.30;99.90;;;;;;4897993;29;20987;-82
2021/07/07 12:28:47;;;;;;;0.90;0.90;;;22.50;99.90;;;;;;4901794;29;20454;-80
2021/07/07 12:31:16;;;;;;;1.45;1.10;;;22.80;99.90;;;;;;4917705;29;20423;-81
2021/07/07 12:33:43;;;;;;;0.80;0.80;;;22.90;99.90;;;;;;4867909;29;20528;-81
2021/07/07 12:36:10;;;;;;;1.20;1.10;;;23.00;99.90;;;;;;4861092;29;20435;-80
2021/07/07 12:38:50;;;;;;;1.08;1.08;;;22.90;99.90;;;;;;4901170;29;20411;-82
2021/07/07 12:41:36;;;;;;;0.85;0.85;;;23.00;99.90;;;;;;4865855;29;20410;-81
2021/07/07 12:44:12;;;;;;;0.75;0.75;;;23.20;99.90;;;;;;4917566;29;20406;-84
2021/07/07 12:47:07;;;;;;;0.90;0.90;;;23.40;99.90;;;;;;4891513;29;20414;-84
2021/07/07 12:50:17;;;;;;;0.70;0.70;;;23.80;99.90;;;;;;4885915;29;20417;-82